Terminal Aerodrome Forecast
Issued by NWS Paducah, KY

Home | Current Version | Previous Version | Text Only | Print | Product List | Glossary On
Versions: 1 2 3 4 5 6 7 8 9 10 11 12 13 14 15 16 17 18 19 20 21 22 23 24 25 26
000
FTUS43 KPAH 012220 AAB
TAFEVV
TAF AMD
KEVV 012220Z 0122/0218 23005KT P6SM VCSH BKN110
      TEMPO 0122/0124 6SM -SHRA BR SCT025 BKN035
     FM020100 27002KT P6SM OVC040
     FM020900 00000KT 2SM BR BKN050
     FM021500 29004KT P6SM BKN015=

USA.gov is the U.S. government's official web portal to all federal, state and local government web resources and services.